createdAt,value
2019-02-14T00:01:36.275Z,46.79
2019-02-14T00:04:03.082Z,46.80
2019-02-14T00:06:30.195Z,47.01
2019-02-14T00:08:57.129Z,47.06
2019-02-14T00:11:23.721Z,47.23
2019-02-14T00:13:50.716Z,47.67
2019-02-14T00:16:17.337Z,47.92
2019-02-14T00:18:44.316Z,47.93
2019-02-14T00:21:11.240Z,48.02
2019-02-14T00:23:37.844Z,47.80
2019-02-14T00:26:04.718Z,47.46
2019-02-14T00:28:31.596Z,47.40
2019-02-14T00:30:58.400Z,47.32
2019-02-14T00:33:24.995Z,47.52
2019-02-14T00:35:51.862Z,47.78
2019-02-14T00:38:19.857Z,48.34
2019-02-14T00:40:46.449Z,48.31
2019-02-14T00:43:13.043Z,48.00
2019-02-14T00:45:39.737Z,47.87
2019-02-14T00:48:06.613Z,48.11
2019-02-14T00:50:33.310Z,48.02
2019-02-14T00:52:59.921Z,48.05
2019-02-14T00:55:26.699Z,48.19
2019-02-14T00:57:53.695Z,47.78
2019-02-14T01:00:20.417Z,47.95
2019-02-14T01:02:47.118Z,47.86
2019-02-14T01:05:13.749Z,47.81
2019-02-14T01:07:41.440Z,48.31
2019-02-14T01:10:08.174Z,48.48
2019-02-14T01:12:35.000Z,49.05
2019-02-14T01:15:01.893Z,49.22
2019-02-14T01:17:28.498Z,49.20
2019-02-14T01:19:55.225Z,48.78
2019-02-14T01:22:21.860Z,48.67
2019-02-14T01:24:48.520Z,48.64
2019-02-14T01:27:15.434Z,49.25
2019-02-14T01:29:42.454Z,49.29
2019-02-14T01:32:09.041Z,48.88
2019-02-14T01:34:36.165Z,48.84
2019-02-14T01:37:02.821Z,48.54
2019-02-14T01:39:29.683Z,47.55
2019-02-14T01:41:56.345Z,48.18
2019-02-14T01:44:22.994Z,48.00
2019-02-14T01:46:49.610Z,47.71
2019-02-14T01:49:16.315Z,47.92
2019-02-14T01:51:43.252Z,48.40
2019-02-14T01:54:09.885Z,48.42
2019-02-14T01:56:36.667Z,48.45
2019-02-14T01:59:03.586Z,48.45
2019-02-14T02:01:30.212Z,48.42
2019-02-14T02:03:56.945Z,48.37
2019-02-14T02:06:23.759Z,48.51
2019-02-14T02:08:50.471Z,48.21
2019-02-14T02:11:17.245Z,48.20
2019-02-14T02:13:43.862Z,48.09
2019-02-14T02:16:10.545Z,47.84
2019-02-14T02:18:37.452Z,47.87
2019-02-14T02:21:04.103Z,48.65
2019-02-14T02:23:30.925Z,48.60
2019-02-14T02:25:57.868Z,48.14
2019-02-14T02:28:24.521Z,47.94
2019-02-14T02:30:51.144Z,47.71
2019-02-14T02:33:18.143Z,48.15
2019-02-14T02:35:44.755Z,48.23
2019-02-14T02:38:11.535Z,48.78
2019-02-14T02:40:38.437Z,48.52
2019-02-14T02:43:05.043Z,47.84
2019-02-14T02:45:32.139Z,47.48
2019-02-14T02:47:58.996Z,47.66
2019-02-14T02:50:26.116Z,47.60
2019-02-14T02:52:53.304Z,47.48
2019-02-14T02:55:20.169Z,47.02
2019-02-14T02:57:46.895Z,47.29
2019-02-14T03:00:15.329Z,47.40
2019-02-14T03:02:42.018Z,48.00
2019-02-14T03:05:08.921Z,48.01
2019-02-14T03:07:35.978Z,48.64
2019-02-14T03:10:02.658Z,48.48
2019-02-14T03:12:29.452Z,48.39
2019-02-14T03:14:56.342Z,48.16
2019-02-14T03:17:23.740Z,48.20
2019-02-14T03:19:50.655Z,48.41
2019-02-14T03:22:17.302Z,47.96
2019-02-14T03:24:45.744Z,47.40
2019-02-14T03:27:12.442Z,47.44
2019-02-14T03:29:39.430Z,47.78
2019-02-14T03:32:06.341Z,47.56
2019-02-14T03:34:33.111Z,47.08
2019-02-14T03:37:01.236Z,46.84
2019-02-14T03:39:27.940Z,46.62
2019-02-14T03:41:54.565Z,46.67
2019-02-14T03:44:21.876Z,46.84
2019-02-14T03:46:48.860Z,47.06
2019-02-14T03:49:15.998Z,47.09
2019-02-14T03:51:42.721Z,46.94
2019-02-14T03:54:09.659Z,46.94
2019-02-14T03:56:36.620Z,46.46
2019-02-14T03:59:03.288Z,46.39
2019-02-14T04:01:29.985Z,46.82
2019-02-14T04:03:56.819Z,47.05
2019-02-14T04:06:27.455Z,47.38
2019-02-14T04:08:52.175Z,47.33
2019-02-14T04:11:19.001Z,46.94
2019-02-14T04:13:46.367Z,47.16
2019-02-14T04:16:13.065Z,47.10
2019-02-14T04:18:39.809Z,47.05
2019-02-14T04:21:06.426Z,47.04
2019-02-14T04:23:33.239Z,46.92
2019-02-14T04:26:00.247Z,47.05
2019-02-14T04:28:27.699Z,46.91
2019-02-14T04:30:54.332Z,47.11
2019-02-14T04:33:21.206Z,47.55
2019-02-14T04:35:47.844Z,47.65
2019-02-14T04:38:14.497Z,47.67
2019-02-14T04:40:41.279Z,47.91
2019-02-14T04:45:53.779Z,47.67
2019-02-14T04:48:23.966Z,47.81
2019-02-14T04:50:50.816Z,48.09
2019-02-14T04:53:18.207Z,48.29
2019-02-14T04:55:46.079Z,48.81
2019-02-14T04:58:13.871Z,49.18
2019-02-14T05:00:40.601Z,49.33
2019-02-14T05:03:07.269Z,48.92
2019-02-14T05:05:34.060Z,48.73
2019-02-14T05:08:00.716Z,48.92
2019-02-14T05:10:27.577Z,49.40
2019-02-14T05:12:54.205Z,49.59
2019-02-14T05:15:20.824Z,48.89
2019-02-14T05:17:47.793Z,48.63
2019-02-14T05:20:14.368Z,48.34
2019-02-14T05:22:41.025Z,48.31
2019-02-14T05:25:07.939Z,48.43
2019-02-14T05:27:34.850Z,48.12
2019-02-14T05:30:01.504Z,48.07
2019-02-14T05:32:28.172Z,48.10
2019-02-14T05:34:55.083Z,47.99
2019-02-14T05:37:22.029Z,48.16
2019-02-14T05:39:49.326Z,48.39
2019-02-14T05:42:17.461Z,48.29
2019-02-14T05:44:44.298Z,48.70
2019-02-14T05:47:11.176Z,48.78
2019-02-14T05:49:38.123Z,48.99
2019-02-14T05:52:04.825Z,48.94
2019-02-14T05:54:31.497Z,49.05
2019-02-14T05:56:58.263Z,48.79
2019-02-14T05:59:25.324Z,48.81
2019-02-14T06:01:52.008Z,49.09
2019-02-14T06:04:18.710Z,49.02
2019-02-14T06:06:45.773Z,49.12
2019-02-14T06:09:12.410Z,49.09
2019-02-14T06:11:39.153Z,49.12
2019-02-14T06:14:05.729Z,49.18
2019-02-14T06:16:32.485Z,49.06
2019-02-14T06:19:00.221Z,48.34
2019-02-14T06:21:27.059Z,48.02
2019-02-14T06:23:53.692Z,48.02
2019-02-14T06:26:20.753Z,48.04
2019-02-14T06:28:47.415Z,48.11
2019-02-14T06:31:14.115Z,48.30
2019-02-14T06:33:40.874Z,48.30
2019-02-14T06:36:07.465Z,48.36
2019-02-14T06:38:34.075Z,49.02
2019-02-14T06:41:01.083Z,49.39
2019-02-14T06:43:31.356Z,49.70
2019-02-14T06:46:05.888Z,49.75
2019-02-14T06:48:37.055Z,49.76
2019-02-14T06:51:04.232Z,49.53
2019-02-14T06:53:31.767Z,49.37
2019-02-14T06:56:02.876Z,49.39
2019-02-14T06:58:26.930Z,49.22
2019-02-14T07:00:53.639Z,49.00
2019-02-14T07:03:20.341Z,48.65
2019-02-14T07:05:46.969Z,47.97
2019-02-14T07:08:13.562Z,48.06
2019-02-14T07:10:40.396Z,48.05
2019-02-14T07:13:07.086Z,48.12
2019-02-14T07:15:33.752Z,47.74
2019-02-14T07:18:00.903Z,47.65
2019-02-14T07:20:27.575Z,48.07
2019-02-14T07:22:54.514Z,48.10
2019-02-14T07:25:21.140Z,47.83
2019-02-14T07:27:47.774Z,47.21
2019-02-14T07:30:14.863Z,47.68
2019-02-14T07:32:41.707Z,47.39
2019-02-14T07:35:08.639Z,46.92
2019-02-14T07:37:35.590Z,46.84
2019-02-14T07:40:02.210Z,46.63
2019-02-14T07:42:28.858Z,46.34
2019-02-14T07:44:55.798Z,46.17
2019-02-14T07:47:22.779Z,46.15
2019-02-14T07:49:49.462Z,45.92
2019-02-14T07:52:16.496Z,45.87
2019-02-14T07:54:43.441Z,45.64
2019-02-14T07:59:42.057Z,44.83
2019-02-14T08:02:09.268Z,44.61
2019-02-14T08:04:36.103Z,44.09
2019-02-14T08:07:03.441Z,43.89
2019-02-14T08:09:31.627Z,43.72
2019-02-14T08:11:58.309Z,43.79
2019-02-14T08:14:25.384Z,43.81
2019-02-14T08:17:05.984Z,43.11
2019-02-14T08:19:32.720Z,43.10
2019-02-14T08:21:59.545Z,42.63
2019-02-14T08:24:26.393Z,42.20
2019-02-14T08:26:53.418Z,42.95
2019-02-14T08:29:20.396Z,42.62
2019-02-14T08:31:47.736Z,41.49
2019-02-14T08:34:14.521Z,41.53
2019-02-14T08:36:41.581Z,41.25
2019-02-14T08:39:08.708Z,40.76
2019-02-14T08:41:35.902Z,40.96
2019-02-14T08:44:03.002Z,40.96
2019-02-14T08:46:29.684Z,40.16
2019-02-14T08:48:56.828Z,39.94
2019-02-14T08:51:23.669Z,39.80
2019-02-14T08:53:50.658Z,39.30
2019-02-14T08:56:17.934Z,38.77
2019-02-14T08:58:44.849Z,38.44
2019-02-14T09:01:11.839Z,38.51
2019-02-14T09:03:38.804Z,37.95
2019-02-14T09:06:05.830Z,37.54
2019-02-14T09:08:32.866Z,37.47
2019-02-14T09:10:59.853Z,37.27
2019-02-14T09:13:26.519Z,36.94
2019-02-14T09:15:53.166Z,36.82
2019-02-14T09:18:20.131Z,35.82
2019-02-14T09:20:47.154Z,35.53
2019-02-14T09:23:14.773Z,34.42
2019-02-14T09:25:41.822Z,34.81
2019-02-14T09:28:08.461Z,33.32
2019-02-14T09:30:35.442Z,33.69
2019-02-14T09:33:02.691Z,33.70
2019-02-14T09:35:29.375Z,33.36
2019-02-14T09:38:03.098Z,33.44
2019-02-14T09:40:24.705Z,33.13
2019-02-14T09:42:51.598Z,32.66
2019-02-14T09:45:18.448Z,32.89
2019-02-14T09:47:45.136Z,32.11
2019-02-14T09:50:11.817Z,32.59
2019-02-14T09:52:38.753Z,32.25
2019-02-14T09:55:05.609Z,31.95
2019-02-14T09:57:32.880Z,31.75
2019-02-14T09:59:59.707Z,31.20
2019-02-14T10:04:59.087Z,30.48
2019-02-14T10:07:25.834Z,31.66
2019-02-14T10:09:52.889Z,30.88
2019-02-14T10:12:19.910Z,30.85
2019-02-14T10:14:46.899Z,30.14
2019-02-14T10:17:21.841Z,29.85
2019-02-14T10:19:41.987Z,29.96
2019-02-14T10:22:08.667Z,29.07
2019-02-14T10:24:35.361Z,29.09
2019-02-14T10:27:03.452Z,28.59
2019-02-14T10:29:30.273Z,28.26
2019-02-14T10:31:57.182Z,28.50
2019-02-14T10:34:24.069Z,28.42
2019-02-14T10:36:50.762Z,27.82
2019-02-14T10:39:17.426Z,27.60
2019-02-14T10:41:44.427Z,28.39
2019-02-14T10:44:11.436Z,27.34
2019-02-14T10:46:38.352Z,27.92
2019-02-14T10:49:05.199Z,28.09
2019-02-14T10:51:33.550Z,27.55
2019-02-14T10:54:00.400Z,27.26
2019-02-14T10:56:27.388Z,26.72
2019-02-14T10:58:54.313Z,27.03
2019-02-14T11:01:21.507Z,27.32
2019-02-14T11:03:48.468Z,26.70
2019-02-14T11:06:15.683Z,25.90
2019-02-14T11:08:42.586Z,25.87
2019-02-14T11:11:09.740Z,27.06
2019-02-14T11:13:36.540Z,25.61
2019-02-14T11:16:03.907Z,26.45
2019-02-14T11:18:30.786Z,26.89
2019-02-14T11:20:57.623Z,27.15
2019-02-14T11:23:24.293Z,26.91
2019-02-14T11:25:50.903Z,26.47
2019-02-14T11:28:17.747Z,26.63
2019-02-14T11:30:44.407Z,27.89
2019-02-14T11:33:11.366Z,27.87
2019-02-14T11:35:38.112Z,27.07
2019-02-14T11:38:05.354Z,27.94
2019-02-14T11:40:31.967Z,27.51
2019-02-14T11:42:58.791Z,27.28
2019-02-14T11:45:25.479Z,25.60
2019-02-14T11:47:52.287Z,26.68
2019-02-14T11:50:19.063Z,26.18
2019-02-14T11:52:45.695Z,26.37
2019-02-14T11:55:12.289Z,26.15
2019-02-14T11:57:39.247Z,25.61
2019-02-14T12:00:06.464Z,25.22
2019-02-14T12:02:34.551Z,24.13
2019-02-14T12:05:01.288Z,25.21
2019-02-14T12:07:27.920Z,25.24
2019-02-14T12:09:54.609Z,25.80
2019-02-14T12:12:22.965Z,25.11
2019-02-14T12:14:50.014Z,26.25
2019-02-14T12:17:16.800Z,25.88
2019-02-14T12:19:43.705Z,25.21
2019-02-14T12:22:11.305Z,24.49
2019-02-14T12:24:38.232Z,25.69
2019-02-14T12:27:05.013Z,25.31
2019-02-14T12:29:31.739Z,24.53
2019-02-14T12:31:58.716Z,24.51
2019-02-14T12:34:25.645Z,24.38
2019-02-14T12:36:52.260Z,24.98
2019-02-14T12:39:19.029Z,25.18
2019-02-14T12:41:45.917Z,25.06
2019-02-14T12:44:12.618Z,23.66
2019-02-14T12:46:39.270Z,24.53
2019-02-14T12:49:06.056Z,24.67
2019-02-14T12:51:32.699Z,24.05
2019-02-14T12:53:59.319Z,24.16
2019-02-14T12:56:26.282Z,23.67
2019-02-14T12:58:53.539Z,24.67
2019-02-14T13:01:21.910Z,24.68
2019-02-14T13:03:48.994Z,24.33
2019-02-14T13:06:15.661Z,25.40
2019-02-14T13:08:42.305Z,25.15
2019-02-14T13:11:09.481Z,25.36
2019-02-14T13:13:36.653Z,24.04
2019-02-14T13:16:03.483Z,24.65
2019-02-14T13:18:30.453Z,24.20
2019-02-14T13:20:57.107Z,24.14
2019-02-14T13:23:23.804Z,24.65
2019-02-14T13:25:50.757Z,24.77
2019-02-14T13:28:17.781Z,24.03
2019-02-14T13:30:44.715Z,23.95
2019-02-14T13:33:11.585Z,23.97
2019-02-14T13:35:38.282Z,23.49
2019-02-14T13:38:06.052Z,24.40
2019-02-14T13:40:32.687Z,23.73
2019-02-14T13:42:59.747Z,24.80
2019-02-14T13:45:26.775Z,24.72
2019-02-14T13:47:54.062Z,24.39
2019-02-14T13:50:21.240Z,24.21
2019-02-14T13:52:48.077Z,23.80
2019-02-14T13:55:15.087Z,24.55
2019-02-14T13:57:42.163Z,24.04
2019-02-14T14:00:09.509Z,23.95
2019-02-14T14:02:36.326Z,24.59
2019-02-14T14:05:03.100Z,24.31
2019-02-14T14:07:39.925Z,24.76
2019-02-14T14:09:58.600Z,24.32
2019-02-14T14:12:25.560Z,24.56
2019-02-14T14:14:52.303Z,24.77
2019-02-14T14:17:19.271Z,23.98
2019-02-14T14:19:46.630Z,23.76
2019-02-14T14:22:13.595Z,24.31
2019-02-14T14:24:40.480Z,24.76
2019-02-14T14:27:07.665Z,24.60
2019-02-14T14:29:34.255Z,24.91
2019-02-14T14:32:01.136Z,24.65
2019-02-14T14:34:28.357Z,25.19
2019-02-14T14:36:55.050Z,24.85
2019-02-14T14:39:21.962Z,25.04
2019-02-14T14:41:48.854Z,25.36
2019-02-14T14:44:15.969Z,25.33
2019-02-14T14:46:42.695Z,26.03
2019-02-14T14:49:11.799Z,26.09
2019-02-14T14:51:38.783Z,26.00
2019-02-14T14:54:06.886Z,25.79
2019-02-14T14:56:33.857Z,26.46
2019-02-14T14:59:00.655Z,26.34
2019-02-14T15:01:27.436Z,26.75
2019-02-14T15:03:54.785Z,26.79
2019-02-14T15:06:22.012Z,26.88
2019-02-14T15:08:48.791Z,27.14
2019-02-14T15:11:15.847Z,27.19
2019-02-14T15:13:43.591Z,27.22
2019-02-14T15:16:10.784Z,27.45
2019-02-14T15:18:37.510Z,27.00
2019-02-14T15:21:04.545Z,27.72
2019-02-14T15:23:32.195Z,27.57
2019-02-14T15:25:58.909Z,27.57
2019-02-14T15:28:26.478Z,27.21
2019-02-14T15:30:53.291Z,27.25
2019-02-14T15:33:21.483Z,27.71
2019-02-14T15:35:48.142Z,27.82
2019-02-14T15:38:15.027Z,28.46
2019-02-14T15:40:42.766Z,28.66
2019-02-14T15:43:09.690Z,28.88
2019-02-14T15:45:37.619Z,28.71
2019-02-14T15:48:04.402Z,28.93
2019-02-14T15:50:32.162Z,29.05
2019-02-14T15:52:59.301Z,29.35
2019-02-14T15:55:26.301Z,29.41
2019-02-14T15:57:53.601Z,29.68
2019-02-14T16:00:20.971Z,29.63
2019-02-14T16:02:50.130Z,30.23
2019-02-14T16:05:17.333Z,30.73
2019-02-14T16:07:45.583Z,30.61
2019-02-14T16:10:18.698Z,30.86
2019-02-14T16:12:43.269Z,30.61
2019-02-14T16:15:09.547Z,31.12
2019-02-14T16:17:37.950Z,31.32
2019-02-14T16:20:04.938Z,31.61
2019-02-14T16:22:31.769Z,31.94
2019-02-14T16:24:59.632Z,32.52
2019-02-14T16:27:26.853Z,32.43
2019-02-14T16:32:40.069Z,33.03
2019-02-14T16:35:08.419Z,33.28
2019-02-14T16:37:35.026Z,33.75
2019-02-14T16:40:02.141Z,33.66
2019-02-14T16:42:29.221Z,33.80
2019-02-14T16:44:58.753Z,33.86
2019-02-14T16:47:29.601Z,34.16
2019-02-14T16:49:58.440Z,34.49
2019-02-14T16:52:28.898Z,34.93
2019-02-14T16:54:55.938Z,35.35
2019-02-14T16:57:23.762Z,35.95
2019-02-14T16:59:52.323Z,36.09
2019-02-14T17:02:19.327Z,36.02
2019-02-14T17:04:46.448Z,36.07
2019-02-14T17:07:13.267Z,36.09
2019-02-14T17:09:39.893Z,36.20
2019-02-14T17:12:06.508Z,36.44
2019-02-14T17:14:33.330Z,36.55
2019-02-14T17:16:59.968Z,37.14
2019-02-14T17:19:26.737Z,37.44
2019-02-14T17:21:53.594Z,37.73
2019-02-14T17:24:20.497Z,38.15
2019-02-14T17:26:47.468Z,38.29
2019-02-14T17:29:15.197Z,38.27
2019-02-14T17:31:42.106Z,38.24
2019-02-14T17:34:09.030Z,38.29
2019-02-14T17:36:35.691Z,38.37
2019-02-14T17:39:02.343Z,38.43
2019-02-14T17:41:28.928Z,38.53
2019-02-14T17:43:57.729Z,38.93
2019-02-14T17:46:26.447Z,39.10
2019-02-14T17:48:57.556Z,39.52
2019-02-14T17:51:26.182Z,39.57
2019-02-14T17:53:53.097Z,40.35
2019-02-14T17:56:20.340Z,40.87
2019-02-14T17:58:49.275Z,40.71
2019-02-14T18:01:15.974Z,40.65
2019-02-14T18:03:43.184Z,40.44
2019-02-14T18:06:10.070Z,40.57
2019-02-14T18:08:37.054Z,40.43
2019-02-14T18:11:06.576Z,40.63
2019-02-14T18:13:33.166Z,40.83
2019-02-14T18:16:00.702Z,40.93
2019-02-14T18:18:29.754Z,41.15
2019-02-14T18:20:58.595Z,41.36
2019-02-14T18:23:25.732Z,41.82
2019-02-14T18:25:52.318Z,41.70
2019-02-14T18:28:21.277Z,41.76
2019-02-14T18:30:50.946Z,41.96
2019-02-14T18:33:21.278Z,43.20
2019-02-14T18:35:49.933Z,43.37
2019-02-14T18:38:16.580Z,43.58
2019-02-14T18:40:43.777Z,43.37
2019-02-14T18:45:58.441Z,43.47
2019-02-14T18:48:25.606Z,43.50
2019-02-14T18:50:55.846Z,43.94
2019-02-14T18:53:23.913Z,44.80
2019-02-14T18:55:53.206Z,45.70
2019-02-14T18:58:26.339Z,45.36
2019-02-14T19:00:50.587Z,44.93
2019-02-14T19:03:19.506Z,44.97
2019-02-14T19:05:46.910Z,44.94
2019-02-14T19:08:16.601Z,44.43
2019-02-14T19:10:45.640Z,44.17
2019-02-14T19:13:12.248Z,44.41
2019-02-14T19:15:44.526Z,44.67
2019-02-14T19:18:11.086Z,44.65
2019-02-14T19:20:41.488Z,45.11
2019-02-14T19:23:08.415Z,45.26
2019-02-14T19:25:35.123Z,45.54
2019-02-14T19:28:03.218Z,45.61
2019-02-14T19:30:32.895Z,45.62
2019-02-14T19:33:00.493Z,45.60
2019-02-14T19:35:31.374Z,45.64
2019-02-14T19:38:01.282Z,45.53
2019-02-14T19:43:19.220Z,46.99
2019-02-14T19:45:50.412Z,46.81
2019-02-14T19:48:18.280Z,46.50
2019-02-14T19:50:48.951Z,46.39
2019-02-14T19:53:18.269Z,46.90
2019-02-14T19:55:48.117Z,46.79
2019-02-14T19:58:17.476Z,46.94
2019-02-14T20:00:44.923Z,47.65
2019-02-14T20:03:11.663Z,48.49
2019-02-14T20:05:38.426Z,48.03
2019-02-14T20:08:05.686Z,48.40
2019-02-14T20:10:34.532Z,49.14
2019-02-14T20:13:01.155Z,48.78
2019-02-14T20:15:37.033Z,48.36
2019-02-14T20:18:01.643Z,47.98
2019-02-14T20:20:30.280Z,48.39
2019-02-14T20:22:59.871Z,48.18
2019-02-14T20:25:27.970Z,48.41
2019-02-14T20:27:56.073Z,48.18
2019-02-14T20:30:30.533Z,48.38
2019-02-14T20:33:04.442Z,48.55
2019-02-14T20:35:24.801Z,49.11
2019-02-14T20:37:52.779Z,49.52
2019-02-14T20:40:23.754Z,49.03
2019-02-14T20:42:51.677Z,48.88
2019-02-14T20:45:18.360Z,48.42
2019-02-14T20:47:46.913Z,49.07
2019-02-14T20:50:14.836Z,48.85
2019-02-14T20:52:44.254Z,48.53
2019-02-14T20:55:12.839Z,47.76
2019-02-14T20:57:43.964Z,47.92
2019-02-14T21:00:10.659Z,47.92
2019-02-14T21:02:37.811Z,48.33
2019-02-14T21:05:06.256Z,49.16
2019-02-14T21:07:36.863Z,49.94
2019-02-14T21:10:04.888Z,50.39
2019-02-14T21:12:33.066Z,50.54
2019-02-14T21:15:00.444Z,50.44
2019-02-14T21:17:31.950Z,50.30
2019-02-14T21:20:10.851Z,50.49
2019-02-14T21:22:39.445Z,51.08
2019-02-14T21:25:12.906Z,51.98
2019-02-14T21:27:39.249Z,51.67
2019-02-14T21:30:09.859Z,51.62
2019-02-14T21:32:40.708Z,51.83
2019-02-14T21:35:10.470Z,51.91
2019-02-14T21:37:39.947Z,51.95
2019-02-14T21:40:11.800Z,51.20
2019-02-14T21:42:41.538Z,50.86
2019-02-14T21:45:08.773Z,51.47
2019-02-14T21:47:38.554Z,52.40
2019-02-14T21:50:11.030Z,52.57
2019-02-14T21:52:40.933Z,52.61
2019-02-14T21:55:26.145Z,52.68
2019-02-14T21:57:42.551Z,52.59
2019-02-14T22:00:11.989Z,52.38
2019-02-14T22:02:38.614Z,52.09
2019-02-14T22:05:05.270Z,51.94
2019-02-14T22:07:34.890Z,51.80
2019-02-14T22:10:00.636Z,52.46
2019-02-14T22:12:39.927Z,52.49
2019-02-14T22:14:55.763Z,53.03
2019-02-14T22:17:22.862Z,52.78
2019-02-14T22:19:49.806Z,52.60
2019-02-14T22:22:16.480Z,52.27
2019-02-14T22:24:43.369Z,51.86
2019-02-14T22:27:09.963Z,51.54
2019-02-14T22:29:36.610Z,51.42
2019-02-14T22:32:03.564Z,51.07
2019-02-14T22:34:30.216Z,51.09
2019-02-14T22:36:57.385Z,50.94
2019-02-14T22:39:26.372Z,51.77
2019-02-14T22:41:53.096Z,51.73
2019-02-14T22:44:20.155Z,52.14
2019-02-14T22:46:46.902Z,52.53
2019-02-14T22:49:13.764Z,52.53
2019-02-14T22:51:40.731Z,52.69
2019-02-14T22:54:07.888Z,53.18
2019-02-14T22:56:34.858Z,53.29
2019-02-14T22:59:02.382Z,53.50
2019-02-14T23:01:29.017Z,53.56
2019-02-14T23:03:56.151Z,53.38
2019-02-14T23:06:22.943Z,52.57
2019-02-14T23:08:50.290Z,52.86
2019-02-14T23:11:16.934Z,52.49
2019-02-14T23:13:44.375Z,52.34
2019-02-14T23:16:11.047Z,52.16
2019-02-14T23:18:38.265Z,52.18
2019-02-14T23:21:05.949Z,51.99
2019-02-14T23:23:32.567Z,52.56
2019-02-14T23:25:59.341Z,53.65
2019-02-14T23:28:26.291Z,53.52
2019-02-14T23:30:53.187Z,53.69
2019-02-14T23:33:20.629Z,53.07
2019-02-14T23:35:47.280Z,52.80
2019-02-14T23:38:14.229Z,53.10
2019-02-14T23:40:41.227Z,53.08
2019-02-14T23:43:08.635Z,53.09
2019-02-14T23:45:35.500Z,53.29
2019-02-14T23:48:02.720Z,53.66
2019-02-14T23:50:29.663Z,53.48
2019-02-14T23:52:56.368Z,53.40
2019-02-14T23:55:23.054Z,53.19
2019-02-14T23:57:50.833Z,53.02
